sensor_id;sensor_type;location;lat;lon;timestamp;temperature;humidity
9762;DHT22;4920;49.594;11.022;2023-10-08T00:01:19;14.80;99.90
9762;DHT22;4920;49.594;11.022;2023-10-08T00:03:49;14.90;99.90
9762;DHT22;4920;49.594;11.022;2023-10-08T00:06:20;15.20;99.90
9762;DHT22;4920;49.594;11.022;2023-10-08T00:08:50;15.40;99.90
9762;DHT22;4920;49.594;11.022;2023-10-08T00:11:25;15.60;99.90
9762;DHT22;4920;49.594;11.022;2023-10-08T00:13:56;15.80;99.90
9762;DHT22;4920;49.594;11.022;2023-10-08T00:16:30;15.90;99.90
9762;DHT22;4920;49.594;11.022;2023-10-08T00:19:01;16.10;99.90
9762;DHT22;4920;49.594;11.022;2023-10-08T00:21:38;16.20;99.90
9762;DHT22;4920;49.594;11.022;2023-10-08T00:24:07;16.30;99.90
9762;DHT22;4920;49.594;11.022;2023-10-08T00:26:36;16.50;99.90
9762;DHT22;4920;49.594;11.022;2023-10-08T00:29:08;16.60;99.90
9762;DHT22;4920;49.594;11.022;2023-10-08T00:31:46;16.70;99.90
9762;DHT22;4920;49.594;11.022;2023-10-08T00:34:17;16.80;99.90
9762;DHT22;4920;49.594;11.022;2023-10-08T00:36:48;16.80;99.90
9762;DHT22;4920;49.594;11.022;2023-10-08T00:39:18;16.80;99.90
9762;DHT22;4920;49.594;11.022;2023-10-08T00:41:52;16.70;99.90
9762;DHT22;4920;49.594;11.022;2023-10-08T00:44:27;16.60;99.90
9762;DHT22;4920;49.594;11.022;2023-10-08T00:47:01;16.60;99.90
9762;DHT22;4920;49.594;11.022;2023-10-08T00:49:32;16.40;99.90
9762;DHT22;4920;49.594;11.022;2023-10-08T00:52:15;16.30;99.90
9762;DHT22;4920;49.594;11.022;2023-10-08T00:55:06;16.10;99.90
9762;DHT22;4920;49.594;11.022;2023-10-08T00:57:56;16.00;99.90
9762;DHT22;4920;49.594;11.022;2023-10-08T01:00:26;15.90;99.90
9762;DHT22;4920;49.594;11.022;2023-10-08T01:03:07;15.70;99.90
9762;DHT22;4920;49.594;11.022;2023-10-08T01:05:43;15.60;99.90
9762;DHT22;4920;49.594;11.022;2023-10-08T01:08:16;15.50;99.90
9762;DHT22;4920;49.594;11.022;2023-10-08T01:10:50;15.40;99.90
9762;DHT22;4920;49.594;11.022;2023-10-08T01:13:30;15.30;99.90
9762;DHT22;4920;49.594;11.022;2023-10-08T01:16:10;15.20;99.90
9762;DHT22;4920;49.594;11.022;2023-10-08T01:18:41;15.10;99.90
9762;DHT22;4920;49.594;11.022;2023-10-08T01:21:18;15.10;99.90
9762;DHT22;4920;49.594;11.022;2023-10-08T01:24:03;15.10;99.90
9762;DHT22;4920;49.594;11.022;2023-10-08T01:26:34;15.00;99.90
9762;DHT22;4920;49.594;11.022;2023-10-08T01:29:09;15.00;99.90
9762;DHT22;4920;49.594;11.022;2023-10-08T01:31:47;15.00;99.90
9762;DHT22;4920;49.594;11.022;2023-10-08T01:34:17;15.00;99.90
9762;DHT22;4920;49.594;11.022;2023-10-08T01:36:53;15.10;99.90
9762;DHT22;4920;49.594;11.022;2023-10-08T01:39:24;15.10;99.90
9762;DHT22;4920;49.594;11.022;2023-10-08T01:41:53;15.10;99.90
9762;DHT22;4920;49.594;11.022;2023-10-08T01:44:23;15.00;99.90
9762;DHT22;4920;49.594;11.022;2023-10-08T01:46:52;15.00;99.90
9762;DHT22;4920;49.594;11.022;2023-10-08T01:49:24;15.00;99.90
9762;DHT22;4920;49.594;11.022;2023-10-08T01:51:59;15.00;99.90
9762;DHT22;4920;49.594;11.022;2023-10-08T01:54:36;15.00;99.90
9762;DHT22;4920;49.594;11.022;2023-10-08T01:57:05;14.90;99.90
9762;DHT22;4920;49.594;11.022;2023-10-08T01:59:37;14.90;99.90
9762;DHT22;4920;49.594;11.022;2023-10-08T02:02:06;14.90;99.90
9762;DHT22;4920;49.594;11.022;2023-10-08T02:04:35;14.80;99.90
9762;DHT22;4920;49.594;11.022;2023-10-08T02:07:05;14.80;99.90
9762;DHT22;4920;49.594;11.022;2023-10-08T02:09:38;14.80;99.90
9762;DHT22;4920;49.594;11.022;2023-10-08T02:12:09;14.70;99.90
9762;DHT22;4920;49.594;11.022;2023-10-08T02:14:41;14.70;99.90
9762;DHT22;4920;49.594;11.022;2023-10-08T02:17:12;14.70;99.90
9762;DHT22;4920;49.594;11.022;2023-10-08T02:19:41;14.60;99.90
9762;DHT22;4920;49.594;11.022;2023-10-08T02:22:10;14.60;99.90
9762;DHT22;4920;49.594;11.022;2023-10-08T02:24:40;14.60;99.90
9762;DHT22;4920;49.594;11.022;2023-10-08T02:27:10;14.60;99.90
9762;DHT22;4920;49.594;11.022;2023-10-08T02:29:42;14.60;99.90
9762;DHT22;4920;49.594;11.022;2023-10-08T02:32:11;14.60;99.90
9762;DHT22;4920;49.594;11.022;2023-10-08T02:34:41;14.60;99.90
9762;DHT22;4920;49.594;11.022;2023-10-08T02:37:10;14.50;99.90
9762;DHT22;4920;49.594;11.022;2023-10-08T02:39:41;14.50;99.90
9762;DHT22;4920;49.594;11.022;2023-10-08T02:42:13;14.40;99.90
9762;DHT22;4920;49.594;11.022;2023-10-08T02:44:42;14.40;99.90
9762;DHT22;4920;49.594;11.022;2023-10-08T02:47:12;14.30;99.90
9762;DHT22;4920;49.594;11.022;2023-10-08T02:49:44;14.30;99.90
9762;DHT22;4920;49.594;11.022;2023-10-08T02:52:15;14.30;99.90
9762;DHT22;4920;49.594;11.022;2023-10-08T02:54:46;14.20;99.90
9762;DHT22;4920;49.594;11.022;2023-10-08T02:57:15;14.20;99.90
9762;DHT22;4920;49.594;11.022;2023-10-08T02:59:44;14.20;99.90
9762;DHT22;4920;49.594;11.022;2023-10-08T03:02:14;14.10;99.90
9762;DHT22;4920;49.594;11.022;2023-10-08T03:04:48;14.20;99.90
9762;DHT22;4920;49.594;11.022;2023-10-08T03:07:19;14.20;99.90
9762;DHT22;4920;49.594;11.022;2023-10-08T03:10:02;14.20;99.90
9762;DHT22;4920;49.594;11.022;2023-10-08T03:12:34;14.30;99.90
9762;DHT22;4920;49.594;11.022;2023-10-08T03:15:04;14.40;99.90
9762;DHT22;4920;49.594;11.022;2023-10-08T03:17:42;14.60;99.90
9762;DHT22;4920;49.594;11.022;2023-10-08T03:20:19;14.80;99.90
9762;DHT22;4920;49.594;11.022;2023-10-08T03:22:57;15.00;99.90
9762;DHT22;4920;49.594;11.022;2023-10-08T03:25:28;15.10;99.90
9762;DHT22;4920;49.594;11.022;2023-10-08T03:27:58;15.30;99.90
9762;DHT22;4920;49.594;11.022;2023-10-08T03:30:27;15.30;99.90
9762;DHT22;4920;49.594;11.022;2023-10-08T03:32:56;15.40;99.90
9762;DHT22;4920;49.594;11.022;2023-10-08T03:35:26;15.40;99.90
9762;DHT22;4920;49.594;11.022;2023-10-08T03:38:04;15.40;99.90
9762;DHT22;4920;49.594;11.022;2023-10-08T03:40:50;15.50;99.90
9762;DHT22;4920;49.594;11.022;2023-10-08T03:43:24;15.50;99.90
9762;DHT22;4920;49.594;11.022;2023-10-08T03:46:01;15.50;99.90
9762;DHT22;4920;49.594;11.022;2023-10-08T03:48:33;15.50;99.90
9762;DHT22;4920;49.594;11.022;2023-10-08T03:51:04;15.50;99.90
9762;DHT22;4920;49.594;11.022;2023-10-08T03:53:38;15.60;99.90
9762;DHT22;4920;49.594;11.022;2023-10-08T03:56:28;15.60;99.90
9762;DHT22;4920;49.594;11.022;2023-10-08T03:58:59;15.70;99.90
9762;DHT22;4920;49.594;11.022;2023-10-08T04:01:38;15.70;99.90
9762;DHT22;4920;49.594;11.022;2023-10-08T04:04:07;15.80;99.90
9762;DHT22;4920;49.594;11.022;2023-10-08T04:06:41;15.80;99.90
9762;DHT22;4920;49.594;11.022;2023-10-08T04:09:16;15.80;99.90
9762;DHT22;4920;49.594;11.022;2023-10-08T04:11:52;15.80;99.90
9762;DHT22;4920;49.594;11.022;2023-10-08T04:14:25;15.90;99.90
9762;DHT22;4920;49.594;11.022;2023-10-08T04:16:55;15.80;99.90
9762;DHT22;4920;49.594;11.022;2023-10-08T04:19:26;15.70;99.90
9762;DHT22;4920;49.594;11.022;2023-10-08T04:21:56;15.60;99.90
9762;DHT22;4920;49.594;11.022;2023-10-08T04:24:26;15.50;99.90
9762;DHT22;4920;49.594;11.022;2023-10-08T04:27:03;15.40;99.90
9762;DHT22;4920;49.594;11.022;2023-10-08T04:29:37;15.30;99.90
9762;DHT22;4920;49.594;11.022;2023-10-08T04:32:06;15.20;99.90
9762;DHT22;4920;49.594;11.022;2023-10-08T04:34:43;15.20;99.90
9762;DHT22;4920;49.594;11.022;2023-10-08T04:37:13;15.20;99.90
9762;DHT22;4920;49.594;11.022;2023-10-08T04:39:47;15.20;99.90
9762;DHT22;4920;49.594;11.022;2023-10-08T04:42:26;15.20;99.90
9762;DHT22;4920;49.594;11.022;2023-10-08T04:44:55;15.20;99.90
9762;DHT22;4920;49.594;11.022;2023-10-08T04:47:26;15.30;99.90
9762;DHT22;4920;49.594;11.022;2023-10-08T04:50:04;15.30;99.90
9762;DHT22;4920;49.594;11.022;2023-10-08T04:52:33;15.30;99.90
9762;DHT22;4920;49.594;11.022;2023-10-08T04:55:13;15.30;99.90
9762;DHT22;4920;49.594;11.022;2023-10-08T04:57:51;15.40;99.90
9762;DHT22;4920;49.594;11.022;2023-10-08T05:00:20;15.40;99.90
9762;DHT22;4920;49.594;11.022;2023-10-08T05:03:08;15.40;99.90
9762;DHT22;4920;49.594;11.022;2023-10-08T05:05:42;15.40;99.90
9762;DHT22;4920;49.594;11.022;2023-10-08T05:08:36;15.40;99.90
9762;DHT22;4920;49.594;11.022;2023-10-08T05:11:21;15.30;99.90
9762;DHT22;4920;49.594;11.022;2023-10-08T05:14:06;15.30;99.90
9762;DHT22;4920;49.594;11.022;2023-10-08T05:16:33;15.30;99.90
9762;DHT22;4920;49.594;11.022;2023-10-08T05:19:11;15.20;99.90
9762;DHT22;4920;49.594;11.022;2023-10-08T05:22:05;15.10;99.90
9762;DHT22;4920;49.594;11.022;2023-10-08T05:24:46;15.00;99.90
9762;DHT22;4920;49.594;11.022;2023-10-08T05:27:36;15.00;99.90
9762;DHT22;4920;49.594;11.022;2023-10-08T05:30:24;14.90;99.90
9762;DHT22;4920;49.594;11.022;2023-10-08T05:33:09;14.90;99.90
9762;DHT22;4920;49.594;11.022;2023-10-08T05:35:52;14.90;99.90
9762;DHT22;4920;49.594;11.022;2023-10-08T05:38:30;14.90;99.90
9762;DHT22;4920;49.594;11.022;2023-10-08T05:41:16;15.00;99.90
9762;DHT22;4920;49.594;11.022;2023-10-08T05:43:58;15.00;99.90
9762;DHT22;4920;49.594;11.022;2023-10-08T05:46:43;15.10;99.90
9762;DHT22;4920;49.594;11.022;2023-10-08T05:49:34;15.20;99.90
9762;DHT22;4920;49.594;11.022;2023-10-08T05:52:22;15.30;99.90
9762;DHT22;4920;49.594;11.022;2023-10-08T05:55:08;15.30;99.90
9762;DHT22;4920;49.594;11.022;2023-10-08T05:57:49;15.40;99.90
9762;DHT22;4920;49.594;11.022;2023-10-08T06:00:30;15.40;99.90
9762;DHT22;4920;49.594;11.022;2023-10-08T06:03:14;15.50;99.90
9762;DHT22;4920;49.594;11.022;2023-10-08T06:06:04;15.60;99.90
9762;DHT22;4920;49.594;11.022;2023-10-08T06:09:04;15.70;99.90
9762;DHT22;4920;49.594;11.022;2023-10-08T06:11:48;15.80;99.90
9762;DHT22;4920;49.594;11.022;2023-10-08T06:14:40;15.80;99.90
9762;DHT22;4920;49.594;11.022;2023-10-08T06:17:35;15.80;99.90
9762;DHT22;4920;49.594;11.022;2023-10-08T06:20:27;15.90;99.90
9762;DHT22;4920;49.594;11.022;2023-10-08T06:22:58;15.90;99.90
9762;DHT22;4920;49.594;11.022;2023-10-08T06:25:30;16.00;99.90
9762;DHT22;4920;49.594;11.022;2023-10-08T06:28:00;16.00;99.90
9762;DHT22;4920;49.594;11.022;2023-10-08T06:30:30;16.10;99.90
9762;DHT22;4920;49.594;11.022;2023-10-08T06:33:03;16.10;99.90
9762;DHT22;4920;49.594;11.022;2023-10-08T06:35:34;16.20;99.90
9762;DHT22;4920;49.594;11.022;2023-10-08T06:38:03;16.30;99.90
9762;DHT22;4920;49.594;11.022;2023-10-08T06:40:37;16.30;99.90
9762;DHT22;4920;49.594;11.022;2023-10-08T06:43:11;16.30;99.90
9762;DHT22;4920;49.594;11.022;2023-10-08T06:45:45;16.30;99.90
9762;DHT22;4920;49.594;11.022;2023-10-08T06:48:14;16.30;99.90
9762;DHT22;4920;49.594;11.022;2023-10-08T06:50:50;16.30;99.90
9762;DHT22;4920;49.594;11.022;2023-10-08T06:53:19;16.30;99.90
9762;DHT22;4920;49.594;11.022;2023-10-08T06:55:49;16.40;99.90
9762;DHT22;4920;49.594;11.022;2023-10-08T06:58:24;16.50;99.90
9762;DHT22;4920;49.594;11.022;2023-10-08T07:00:53;16.60;99.90
9762;DHT22;4920;49.594;11.022;2023-10-08T07:03:22;16.80;99.90
9762;DHT22;4920;49.594;11.022;2023-10-08T07:05:54;16.90;99.90
9762;DHT22;4920;49.594;11.022;2023-10-08T07:08:26;17.10;99.90
9762;DHT22;4920;49.594;11.022;2023-10-08T07:11:00;17.30;99.90
9762;DHT22;4920;49.594;11.022;2023-10-08T07:13:34;17.50;99.90
9762;DHT22;4920;49.594;11.022;2023-10-08T07:16:04;17.70;99.90
9762;DHT22;4920;49.594;11.022;2023-10-08T07:18:39;18.00;99.90
9762;DHT22;4920;49.594;11.022;2023-10-08T07:21:13;18.20;99.90
9762;DHT22;4920;49.594;11.022;2023-10-08T07:23:42;18.40;99.90
9762;DHT22;4920;49.594;11.022;2023-10-08T07:26:25;18.50;99.90
9762;DHT22;4920;49.594;11.022;2023-10-08T07:29:05;18.60;99.90
9762;DHT22;4920;49.594;11.022;2023-10-08T07:31:37;18.70;99.90
9762;DHT22;4920;49.594;11.022;2023-10-08T07:34:09;18.70;99.90
9762;DHT22;4920;49.594;11.022;2023-10-08T07:36:55;18.80;99.90
9762;DHT22;4920;49.594;11.022;2023-10-08T07:39:23;18.90;99.90
9762;DHT22;4920;49.594;11.022;2023-10-08T07:42:03;18.90;99.90
9762;DHT22;4920;49.594;11.022;2023-10-08T07:44:35;19.00;99.90
9762;DHT22;4920;49.594;11.022;2023-10-08T07:47:07;19.10;99.90
9762;DHT22;4920;49.594;11.022;2023-10-08T07:49:40;19.10;99.90
9762;DHT22;4920;49.594;11.022;2023-10-08T07:52:12;19.00;99.90
9762;DHT22;4920;49.594;11.022;2023-10-08T07:54:44;18.90;99.90
9762;DHT22;4920;49.594;11.022;2023-10-08T07:57:13;18.90;99.90
9762;DHT22;4920;49.594;11.022;2023-10-08T07:59:46;18.90;99.90
9762;DHT22;4920;49.594;11.022;2023-10-08T08:02:16;18.90;99.90
9762;DHT22;4920;49.594;11.022;2023-10-08T08:04:51;19.00;99.90
9762;DHT22;4920;49.594;11.022;2023-10-08T08:07:22;19.10;99.90
9762;DHT22;4920;49.594;11.022;2023-10-08T08:09:52;19.20;99.90
9762;DHT22;4920;49.594;11.022;2023-10-08T08:12:28;19.30;99.90
9762;DHT22;4920;49.594;11.022;2023-10-08T08:15:00;19.40;99.90
9762;DHT22;4920;49.594;11.022;2023-10-08T08:17:31;19.30;99.90
9762;DHT22;4920;49.594;11.022;2023-10-08T08:20:00;19.20;99.90
9762;DHT22;4920;49.594;11.022;2023-10-08T08:22:46;19.10;99.90
9762;DHT22;4920;49.594;11.022;2023-10-08T08:25:22;19.30;99.90
9762;DHT22;4920;49.594;11.022;2023-10-08T08:28:01;19.50;99.90
9762;DHT22;4920;49.594;11.022;2023-10-08T08:30:33;19.70;99.90
9762;DHT22;4920;49.594;11.022;2023-10-08T08:33:04;19.90;99.90
9762;DHT22;4920;49.594;11.022;2023-10-08T08:35:39;20.00;99.90
9762;DHT22;4920;49.594;11.022;2023-10-08T08:38:09;19.90;99.90
9762;DHT22;4920;49.594;11.022;2023-10-08T08:40:39;19.80;99.90
9762;DHT22;4920;49.594;11.022;2023-10-08T08:43:09;19.60;99.90
9762;DHT22;4920;49.594;11.022;2023-10-08T08:45:39;19.50;99.90
9762;DHT22;4920;49.594;11.022;2023-10-08T08:48:09;19.30;99.90
9762;DHT22;4920;49.594;11.022;2023-10-08T08:50:39;19.20;99.90
9762;DHT22;4920;49.594;11.022;2023-10-08T08:53:10;19.10;99.90
9762;DHT22;4920;49.594;11.022;2023-10-08T08:55:39;19.00;99.90
9762;DHT22;4920;49.594;11.022;2023-10-08T08:58:11;19.00;99.90
9762;DHT22;4920;49.594;11.022;2023-10-08T09:00:40;19.10;99.90
9762;DHT22;4920;49.594;11.022;2023-10-08T09:03:10;19.10;99.90
9762;DHT22;4920;49.594;11.022;2023-10-08T09:05:40;19.00;99.90
9762;DHT22;4920;49.594;11.022;2023-10-08T09:08:18;19.00;99.90
9762;DHT22;4920;49.594;11.022;2023-10-08T09:10:48;19.00;99.90
9762;DHT22;4920;49.594;11.022;2023-10-08T09:13:20;18.90;99.90
9762;DHT22;4920;49.594;11.022;2023-10-08T09:15:50;18.90;99.90
9762;DHT22;4920;49.594;11.022;2023-10-08T09:18:24;18.90;99.90
9762;DHT22;4920;49.594;11.022;2023-10-08T09:20:55;18.90;99.90
9762;DHT22;4920;49.594;11.022;2023-10-08T09:23:26;18.90;99.90
9762;DHT22;4920;49.594;11.022;2023-10-08T09:25:55;19.00;99.90
9762;DHT22;4920;49.594;11.022;2023-10-08T09:28:31;19.10;99.90
9762;DHT22;4920;49.594;11.022;2023-10-08T09:31:03;19.30;99.90
9762;DHT22;4920;49.594;11.022;2023-10-08T09:33:32;19.30;99.90
9762;DHT22;4920;49.594;11.022;2023-10-08T09:36:01;19.40;99.90
9762;DHT22;4920;49.594;11.022;2023-10-08T09:38:36;19.50;99.90
9762;DHT22;4920;49.594;11.022;2023-10-08T09:41:06;19.50;99.90
9762;DHT22;4920;49.594;11.022;2023-10-08T09:43:36;19.50;99.90
9762;DHT22;4920;49.594;11.022;2023-10-08T09:46:09;19.50;99.90
9762;DHT22;4920;49.594;11.022;2023-10-08T09:48:41;19.60;99.90
9762;DHT22;4920;49.594;11.022;2023-10-08T09:51:13;19.60;99.90
9762;DHT22;4920;49.594;11.022;2023-10-08T09:54:00;19.70;99.90
9762;DHT22;4920;49.594;11.022;2023-10-08T09:56:31;19.80;99.90
9762;DHT22;4920;49.594;11.022;2023-10-08T09:59:01;19.90;99.90
9762;DHT22;4920;49.594;11.022;2023-10-08T10:01:30;19.90;99.90
9762;DHT22;4920;49.594;11.022;2023-10-08T10:03:59;19.80;99.90
9762;DHT22;4920;49.594;11.022;2023-10-08T10:06:29;19.80;99.90
9762;DHT22;4920;49.594;11.022;2023-10-08T10:09:00;19.80;99.90
9762;DHT22;4920;49.594;11.022;2023-10-08T10:11:31;19.80;99.90
9762;DHT22;4920;49.594;11.022;2023-10-08T10:14:02;19.90;99.90
9762;DHT22;4920;49.594;11.022;2023-10-08T10:16:36;20.00;99.90
9762;DHT22;4920;49.594;11.022;2023-10-08T10:19:07;20.10;99.90
9762;DHT22;4920;49.594;11.022;2023-10-08T10:21:45;20.10;99.90
9762;DHT22;4920;49.594;11.022;2023-10-08T10:24:33;20.00;99.90
9762;DHT22;4920;49.594;11.022;2023-10-08T10:27:12;20.00;99.90
9762;DHT22;4920;49.594;11.022;2023-10-08T10:29:43;20.10;99.90
9762;DHT22;4920;49.594;11.022;2023-10-08T10:32:15;20.00;99.90
9762;DHT22;4920;49.594;11.022;2023-10-08T10:34:45;19.90;99.90
9762;DHT22;4920;49.594;11.022;2023-10-08T10:37:15;19.90;99.90
9762;DHT22;4920;49.594;11.022;2023-10-08T10:39:56;19.80;99.90
9762;DHT22;4920;49.594;11.022;2023-10-08T10:42:27;19.70;99.90
9762;DHT22;4920;49.594;11.022;2023-10-08T10:44:56;19.70;99.90
9762;DHT22;4920;49.594;11.022;2023-10-08T10:47:26;19.70;99.90
9762;DHT22;4920;49.594;11.022;2023-10-08T10:49:54;19.60;99.90
9762;DHT22;4920;49.594;11.022;2023-10-08T10:52:44;19.60;99.90
9762;DHT22;4920;49.594;11.022;2023-10-08T10:55:17;19.70;99.90
9762;DHT22;4920;49.594;11.022;2023-10-08T10:57:49;19.80;99.90
9762;DHT22;4920;49.594;11.022;2023-10-08T11:00:23;19.90;99.90
9762;DHT22;4920;49.594;11.022;2023-10-08T11:03:10;20.00;99.90
9762;DHT22;4920;49.594;11.022;2023-10-08T11:05:48;20.20;99.90
9762;DHT22;4920;49.594;11.022;2023-10-08T11:08:19;20.40;99.90
9762;DHT22;4920;49.594;11.022;2023-10-08T11:10:52;20.40;99.90
9762;DHT22;4920;49.594;11.022;2023-10-08T11:13:26;20.50;99.90
9762;DHT22;4920;49.594;11.022;2023-10-08T11:16:05;20.60;99.90
9762;DHT22;4920;49.594;11.022;2023-10-08T11:18:35;20.80;99.90
9762;DHT22;4920;49.594;11.022;2023-10-08T11:21:10;21.00;99.90
9762;DHT22;4920;49.594;11.022;2023-10-08T11:23:44;21.10;99.90
9762;DHT22;4920;49.594;11.022;2023-10-08T11:26:25;21.20;99.90
9762;DHT22;4920;49.594;11.022;2023-10-08T11:29:02;21.10;99.90
9762;DHT22;4920;49.594;11.022;2023-10-08T11:31:32;21.00;99.90
9762;DHT22;4920;49.594;11.022;2023-10-08T11:34:03;20.90;99.90
9762;DHT22;4920;49.594;11.022;2023-10-08T11:36:37;20.90;99.90
9762;DHT22;4920;49.594;11.022;2023-10-08T11:39:17;21.00;99.90
9762;DHT22;4920;49.594;11.022;2023-10-08T11:42:01;21.10;99.90
9762;DHT22;4920;49.594;11.022;2023-10-08T11:44:44;21.10;99.90
9762;DHT22;4920;49.594;11.022;2023-10-08T11:47:14;21.00;99.90
9762;DHT22;4920;49.594;11.022;2023-10-08T11:49:48;20.80;99.90
9762;DHT22;4920;49.594;11.022;2023-10-08T11:52:18;20.60;99.90
9762;DHT22;4920;49.594;11.022;2023-10-08T11:54:49;20.30;99.90
9762;DHT22;4920;49.594;11.022;2023-10-08T11:57:22;20.30;99.90
9762;DHT22;4920;49.594;11.022;2023-10-08T11:59:53;20.20;99.90
9762;DHT22;4920;49.594;11.022;2023-10-08T12:02:23;20.10;99.90
9762;DHT22;4920;49.594;11.022;2023-10-08T12:04:51;20.20;99.90
9762;DHT22;4920;49.594;11.022;2023-10-08T12:07:25;20.40;99.90
9762;DHT22;4920;49.594;11.022;2023-10-08T12:09:55;20.60;99.90
9762;DHT22;4920;49.594;11.022;2023-10-08T12:12:26;20.80;99.90
9762;DHT22;4920;49.594;11.022;2023-10-08T12:14:55;20.80;99.90
9762;DHT22;4920;49.594;11.022;2023-10-08T12:17:24;20.80;99.90
9762;DHT22;4920;49.594;11.022;2023-10-08T12:20:06;20.90;99.90
9762;DHT22;4920;49.594;11.022;2023-10-08T12:22:50;21.00;99.90
9762;DHT22;4920;49.594;11.022;2023-10-08T12:25:19;21.00;99.90
9762;DHT22;4920;49.594;11.022;2023-10-08T12:27:51;21.00;99.90
9762;DHT22;4920;49.594;11.022;2023-10-08T12:30:20;21.10;99.90
9762;DHT22;4920;49.594;11.022;2023-10-08T12:32:59;21.20;99.90
9762;DHT22;4920;49.594;11.022;2023-10-08T12:35:28;21.10;99.90
9762;DHT22;4920;49.594;11.022;2023-10-08T12:37:57;21.00;99.90
9762;DHT22;4920;49.594;11.022;2023-10-08T12:40:26;20.80;99.90
9762;DHT22;4920;49.594;11.022;2023-10-08T12:43:11;20.70;99.90
9762;DHT22;4920;49.594;11.022;2023-10-08T12:45:40;20.60;99.90
9762;DHT22;4920;49.594;11.022;2023-10-08T12:48:08;20.60;99.90
9762;DHT22;4920;49.594;11.022;2023-10-08T12:50:41;20.50;99.90
9762;DHT22;4920;49.594;11.022;2023-10-08T12:53:12;20.40;99.90
9762;DHT22;4920;49.594;11.022;2023-10-08T12:55:43;20.40;99.90
9762;DHT22;4920;49.594;11.022;2023-10-08T12:58:15;20.30;99.90
9762;DHT22;4920;49.594;11.022;2023-10-08T13:00:44;20.30;99.90
9762;DHT22;4920;49.594;11.022;2023-10-08T13:03:17;20.20;99.90
9762;DHT22;4920;49.594;11.022;2023-10-08T13:05:51;20.20;99.90
9762;DHT22;4920;49.594;11.022;2023-10-08T13:08:21;20.20;99.90
9762;DHT22;4920;49.594;11.022;2023-10-08T13:10:50;20.00;99.90
9762;DHT22;4920;49.594;11.022;2023-10-08T13:13:21;20.00;99.90
9762;DHT22;4920;49.594;11.022;2023-10-08T13:15:53;20.00;99.90
9762;DHT22;4920;49.594;11.022;2023-10-08T13:18:24;20.00;99.90
9762;DHT22;4920;49.594;11.022;2023-10-08T13:20:53;20.00;99.90
9762;DHT22;4920;49.594;11.022;2023-10-08T13:23:22;20.00;99.90
9762;DHT22;4920;49.594;11.022;2023-10-08T13:25:52;19.90;99.90
9762;DHT22;4920;49.594;11.022;2023-10-08T13:28:23;19.90;99.90
9762;DHT22;4920;49.594;11.022;2023-10-08T13:30:54;19.90;99.90
9762;DHT22;4920;49.594;11.022;2023-10-08T13:33:23;19.90;99.90
9762;DHT22;4920;49.594;11.022;2023-10-08T13:35:52;19.90;99.90
9762;DHT22;4920;49.594;11.022;2023-10-08T13:38:41;19.80;99.90
9762;DHT22;4920;49.594;11.022;2023-10-08T13:41:10;19.70;99.90
9762;DHT22;4920;49.594;11.022;2023-10-08T13:43:46;19.70;99.90
9762;DHT22;4920;49.594;11.022;2023-10-08T13:46:16;19.60;99.90
9762;DHT22;4920;49.594;11.022;2023-10-08T13:48:46;19.50;99.90
9762;DHT22;4920;49.594;11.022;2023-10-08T13:51:19;19.50;99.90
9762;DHT22;4920;49.594;11.022;2023-10-08T13:53:54;19.40;99.90
9762;DHT22;4920;49.594;11.022;2023-10-08T13:56:28;19.30;99.90
9762;DHT22;4920;49.594;11.022;2023-10-08T13:59:00;19.00;99.90
9762;DHT22;4920;49.594;11.022;2023-10-08T14:01:41;18.80;99.90
9762;DHT22;4920;49.594;11.022;2023-10-08T14:04:14;18.70;99.90
9762;DHT22;4920;49.594;11.022;2023-10-08T14:06:48;18.60;99.90
9762;DHT22;4920;49.594;11.022;2023-10-08T14:09:20;18.50;99.90
9762;DHT22;4920;49.594;11.022;2023-10-08T14:11:49;18.40;99.90
9762;DHT22;4920;49.594;11.022;2023-10-08T14:14:22;18.40;99.90
9762;DHT22;4920;49.594;11.022;2023-10-08T14:16:58;18.50;99.90
9762;DHT22;4920;49.594;11.022;2023-10-08T14:19:31;18.60;99.90
9762;DHT22;4920;49.594;11.022;2023-10-08T14:22:07;18.80;99.90
9762;DHT22;4920;49.594;11.022;2023-10-08T14:24:42;18.90;99.90
9762;DHT22;4920;49.594;11.022;2023-10-08T14:27:13;18.80;99.90
9762;DHT22;4920;49.594;11.022;2023-10-08T14:29:47;18.80;99.90
9762;DHT22;4920;49.594;11.022;2023-10-08T14:32:19;18.70;99.90
9762;DHT22;4920;49.594;11.022;2023-10-08T14:34:51;18.70;99.90
9762;DHT22;4920;49.594;11.022;2023-10-08T14:37:38;18.60;99.90
9762;DHT22;4920;49.594;11.022;2023-10-08T14:40:24;18.70;99.90
9762;DHT22;4920;49.594;11.022;2023-10-08T14:43:10;18.70;99.90
9762;DHT22;4920;49.594;11.022;2023-10-08T14:45:41;18.80;99.90
9762;DHT22;4920;49.594;11.022;2023-10-08T14:48:14;18.90;99.90
9762;DHT22;4920;49.594;11.022;2023-10-08T14:50:43;18.90;99.90
9762;DHT22;4920;49.594;11.022;2023-10-08T14:53:13;19.10;99.90
9762;DHT22;4920;49.594;11.022;2023-10-08T14:55:42;19.10;99.90
9762;DHT22;4920;49.594;11.022;2023-10-08T14:58:11;19.10;99.90
9762;DHT22;4920;49.594;11.022;2023-10-08T15:00:43;19.10;99.90
9762;DHT22;4920;49.594;11.022;2023-10-08T15:03:12;19.10;99.90
9762;DHT22;4920;49.594;11.022;2023-10-08T15:05:41;19.00;99.90
9762;DHT22;4920;49.594;11.022;2023-10-08T15:08:10;18.90;99.90
9762;DHT22;4920;49.594;11.022;2023-10-08T15:10:42;18.80;99.90
9762;DHT22;4920;49.594;11.022;2023-10-08T15:13:13;18.50;99.90
9762;DHT22;4920;49.594;11.022;2023-10-08T15:15:44;18.40;99.90
9762;DHT22;4920;49.594;11.022;2023-10-08T15:18:13;18.20;99.90
9762;DHT22;4920;49.594;11.022;2023-10-08T15:20:42;18.00;99.90
9762;DHT22;4920;49.594;11.022;2023-10-08T15:23:11;17.90;99.90
9762;DHT22;4920;49.594;11.022;2023-10-08T15:25:40;17.70;99.90
9762;DHT22;4920;49.594;11.022;2023-10-08T15:28:09;17.60;99.90
9762;DHT22;4920;49.594;11.022;2023-10-08T15:30:39;17.50;99.90
9762;DHT22;4920;49.594;11.022;2023-10-08T15:33:10;17.40;99.90
9762;DHT22;4920;49.594;11.022;2023-10-08T15:35:40;17.30;99.90
9762;DHT22;4920;49.594;11.022;2023-10-08T15:38:09;17.30;99.90
9762;DHT22;4920;49.594;11.022;2023-10-08T15:40:40;17.20;99.90
9762;DHT22;4920;49.594;11.022;2023-10-08T15:43:09;17.20;99.90
9762;DHT22;4920;49.594;11.022;2023-10-08T15:45:38;17.20;99.90
9762;DHT22;4920;49.594;11.022;2023-10-08T15:48:10;17.20;99.90
9762;DHT22;4920;49.594;11.022;2023-10-08T15:50:39;17.10;99.90
9762;DHT22;4920;49.594;11.022;2023-10-08T15:53:08;17.00;99.90
9762;DHT22;4920;49.594;11.022;2023-10-08T15:55:37;16.90;99.90
9762;DHT22;4920;49.594;11.022;2023-10-08T15:58:07;16.90;99.90
9762;DHT22;4920;49.594;11.022;2023-10-08T16:00:36;16.80;99.90
9762;DHT22;4920;49.594;11.022;2023-10-08T16:03:05;16.80;99.90
9762;DHT22;4920;49.594;11.022;2023-10-08T16:05:37;16.80;99.90
9762;DHT22;4920;49.594;11.022;2023-10-08T16:08:07;16.80;99.90
9762;DHT22;4920;49.594;11.022;2023-10-08T16:10:36;16.70;99.90
9762;DHT22;4920;49.594;11.022;2023-10-08T16:13:04;16.70;99.90
9762;DHT22;4920;49.594;11.022;2023-10-08T16:15:33;16.60;99.90
9762;DHT22;4920;49.594;11.022;2023-10-08T16:18:03;16.60;99.90
9762;DHT22;4920;49.594;11.022;2023-10-08T16:20:32;16.50;99.90
9762;DHT22;4920;49.594;11.022;2023-10-08T16:23:04;16.40;99.90
9762;DHT22;4920;49.594;11.022;2023-10-08T16:25:34;16.30;99.90